sensor_id;sensor_type;location;lat;lon;timestamp;temperature;humidity
13446;DHT22;6795;51.232;3.764;2022-09-09T00:00:14;14.80;99.90
13446;DHT22;6795;51.232;3.764;2022-09-09T00:02:49;14.80;99.90
13446;DHT22;6795;51.232;3.764;2022-09-09T00:05:28;14.90;99.90
13446;DHT22;6795;51.232;3.764;2022-09-09T00:08:02;14.90;99.90
13446;DHT22;6795;51.232;3.764;2022-09-09T00:10:36;14.90;99.90
13446;DHT22;6795;51.232;3.764;2022-09-09T00:13:14;15.00;99.90
13446;DHT22;6795;51.232;3.764;2022-09-09T00:15:49;15.00;99.90
13446;DHT22;6795;51.232;3.764;2022-09-09T00:18:25;15.00;99.90
13446;DHT22;6795;51.232;3.764;2022-09-09T00:20:59;15.00;99.90
13446;DHT22;6795;51.232;3.764;2022-09-09T00:23:33;15.00;99.90
13446;DHT22;6795;51.232;3.764;2022-09-09T00:26:09;15.00;99.90
13446;DHT22;6795;51.232;3.764;2022-09-09T00:28:45;15.00;99.90
13446;DHT22;6795;51.232;3.764;2022-09-09T00:31:17;15.00;99.90
13446;DHT22;6795;51.232;3.764;2022-09-09T00:33:49;14.90;99.90
13446;DHT22;6795;51.232;3.764;2022-09-09T00:36:22;14.90;99.90
13446;DHT22;6795;51.232;3.764;2022-09-09T00:38:56;14.90;99.90
13446;DHT22;6795;51.232;3.764;2022-09-09T00:41:35;14.90;99.90
13446;DHT22;6795;51.232;3.764;2022-09-09T00:44:20;14.90;99.90
13446;DHT22;6795;51.232;3.764;2022-09-09T00:47:01;14.90;99.90
13446;DHT22;6795;51.232;3.764;2022-09-09T00:49:43;14.80;99.90
13446;DHT22;6795;51.232;3.764;2022-09-09T00:52:23;14.80;99.90
13446;DHT22;6795;51.232;3.764;2022-09-09T00:55:03;14.80;99.90
13446;DHT22;6795;51.232;3.764;2022-09-09T00:57:34;14.80;99.90
13446;DHT22;6795;51.232;3.764;2022-09-09T01:00:18;14.80;99.90
13446;DHT22;6795;51.232;3.764;2022-09-09T01:02:53;14.70;99.90
13446;DHT22;6795;51.232;3.764;2022-09-09T01:05:33;14.80;99.90
13446;DHT22;6795;51.232;3.764;2022-09-09T01:08:08;14.80;99.90
13446;DHT22;6795;51.232;3.764;2022-09-09T01:10:44;14.80;99.90
13446;DHT22;6795;51.232;3.764;2022-09-09T01:13:22;14.70;99.90
13446;DHT22;6795;51.232;3.764;2022-09-09T01:15:53;14.70;99.90
13446;DHT22;6795;51.232;3.764;2022-09-09T01:18:28;14.70;99.90
13446;DHT22;6795;51.232;3.764;2022-09-09T01:21:05;14.70;99.90
13446;DHT22;6795;51.232;3.764;2022-09-09T01:23:53;14.70;99.90
13446;DHT22;6795;51.232;3.764;2022-09-09T01:26:31;14.60;99.90
13446;DHT22;6795;51.232;3.764;2022-09-09T01:29:01;14.50;99.90
13446;DHT22;6795;51.232;3.764;2022-09-09T01:31:34;14.60;99.90
13446;DHT22;6795;51.232;3.764;2022-09-09T01:34:11;14.50;99.90
13446;DHT22;6795;51.232;3.764;2022-09-09T01:36:43;14.50;99.90
13446;DHT22;6795;51.232;3.764;2022-09-09T01:39:12;14.60;99.90
13446;DHT22;6795;51.232;3.764;2022-09-09T01:41:42;14.60;99.90
13446;DHT22;6795;51.232;3.764;2022-09-09T01:44:11;14.50;99.90
13446;DHT22;6795;51.232;3.764;2022-09-09T01:46:40;14.40;99.90
13446;DHT22;6795;51.232;3.764;2022-09-09T01:49:08;14.40;99.90
13446;DHT22;6795;51.232;3.764;2022-09-09T01:51:38;14.30;99.90
13446;DHT22;6795;51.232;3.764;2022-09-09T01:54:07;14.30;99.90
13446;DHT22;6795;51.232;3.764;2022-09-09T01:56:43;14.20;99.90
13446;DHT22;6795;51.232;3.764;2022-09-09T01:59:24;14.20;99.90
13446;DHT22;6795;51.232;3.764;2022-09-09T02:02:05;14.30;99.90
13446;DHT22;6795;51.232;3.764;2022-09-09T02:04:39;14.30;99.90
13446;DHT22;6795;51.232;3.764;2022-09-09T02:07:18;14.40;99.90
13446;DHT22;6795;51.232;3.764;2022-09-09T02:09:55;14.40;99.90
13446;DHT22;6795;51.232;3.764;2022-09-09T02:12:28;14.50;99.90
13446;DHT22;6795;51.232;3.764;2022-09-09T02:15:03;14.50;99.90
13446;DHT22;6795;51.232;3.764;2022-09-09T02:17:36;14.60;99.90
13446;DHT22;6795;51.232;3.764;2022-09-09T02:20:08;14.60;99.90
13446;DHT22;6795;51.232;3.764;2022-09-09T02:22:41;14.70;99.90
13446;DHT22;6795;51.232;3.764;2022-09-09T02:25:12;14.70;99.90
13446;DHT22;6795;51.232;3.764;2022-09-09T02:27:46;14.60;99.90
13446;DHT22;6795;51.232;3.764;2022-09-09T02:30:15;14.60;99.90
13446;DHT22;6795;51.232;3.764;2022-09-09T02:32:45;14.50;99.90
13446;DHT22;6795;51.232;3.764;2022-09-09T02:35:16;14.60;99.90
13446;DHT22;6795;51.232;3.764;2022-09-09T02:37:45;14.60;99.90
13446;DHT22;6795;51.232;3.764;2022-09-09T02:40:15;14.60;99.90
13446;DHT22;6795;51.232;3.764;2022-09-09T02:42:47;14.60;99.90
13446;DHT22;6795;51.232;3.764;2022-09-09T02:45:18;14.70;99.90
13446;DHT22;6795;51.232;3.764;2022-09-09T02:47:51;14.80;99.90
13446;DHT22;6795;51.232;3.764;2022-09-09T02:50:25;14.80;99.90
13446;DHT22;6795;51.232;3.764;2022-09-09T02:53:06;14.80;99.90
13446;DHT22;6795;51.232;3.764;2022-09-09T02:55:41;14.90;99.90
13446;DHT22;6795;51.232;3.764;2022-09-09T02:58:16;14.90;99.90
13446;DHT22;6795;51.232;3.764;2022-09-09T03:00:47;14.90;99.90
13446;DHT22;6795;51.232;3.764;2022-09-09T03:03:16;15.00;99.90
13446;DHT22;6795;51.232;3.764;2022-09-09T03:05:45;15.00;99.90
13446;DHT22;6795;51.232;3.764;2022-09-09T03:08:13;15.10;99.90
13446;DHT22;6795;51.232;3.764;2022-09-09T03:10:42;15.10;99.90
13446;DHT22;6795;51.232;3.764;2022-09-09T03:13:10;15.10;99.90
13446;DHT22;6795;51.232;3.764;2022-09-09T03:15:40;15.00;99.90
13446;DHT22;6795;51.232;3.764;2022-09-09T03:18:08;15.00;99.90
13446;DHT22;6795;51.232;3.764;2022-09-09T03:20:37;15.00;99.90
13446;DHT22;6795;51.232;3.764;2022-09-09T03:23:05;15.00;99.90
13446;DHT22;6795;51.232;3.764;2022-09-09T03:25:39;14.90;99.90
13446;DHT22;6795;51.232;3.764;2022-09-09T03:28:07;14.90;99.90
13446;DHT22;6795;51.232;3.764;2022-09-09T03:30:36;14.90;99.90
13446;DHT22;6795;51.232;3.764;2022-09-09T03:33:06;14.90;99.90
13446;DHT22;6795;51.232;3.764;2022-09-09T03:35:34;14.90;99.90
13446;DHT22;6795;51.232;3.764;2022-09-09T03:38:03;14.90;99.90
13446;DHT22;6795;51.232;3.764;2022-09-09T03:40:31;14.90;99.90
13446;DHT22;6795;51.232;3.764;2022-09-09T03:42:59;14.90;99.90
13446;DHT22;6795;51.232;3.764;2022-09-09T03:45:27;14.90;99.90
13446;DHT22;6795;51.232;3.764;2022-09-09T03:47:55;14.80;99.90
13446;DHT22;6795;51.232;3.764;2022-09-09T03:50:25;14.80;99.90
13446;DHT22;6795;51.232;3.764;2022-09-09T03:52:54;14.80;99.90
13446;DHT22;6795;51.232;3.764;2022-09-09T03:55:22;14.80;99.90
13446;DHT22;6795;51.232;3.764;2022-09-09T03:57:50;14.80;99.90
13446;DHT22;6795;51.232;3.764;2022-09-09T04:00:19;14.80;99.90
13446;DHT22;6795;51.232;3.764;2022-09-09T04:02:47;14.80;99.90
13446;DHT22;6795;51.232;3.764;2022-09-09T04:05:16;14.80;99.90
13446;DHT22;6795;51.232;3.764;2022-09-09T04:07:46;14.80;99.90
13446;DHT22;6795;51.232;3.764;2022-09-09T04:10:14;14.80;99.90
13446;DHT22;6795;51.232;3.764;2022-09-09T04:12:43;14.90;99.90
13446;DHT22;6795;51.232;3.764;2022-09-09T04:15:15;14.90;99.90
13446;DHT22;6795;51.232;3.764;2022-09-09T04:17:45;15.00;99.90
13446;DHT22;6795;51.232;3.764;2022-09-09T04:20:14;14.90;99.90
13446;DHT22;6795;51.232;3.764;2022-09-09T04:22:42;14.90;99.90
13446;DHT22;6795;51.232;3.764;2022-09-09T04:25:12;14.90;99.90
13446;DHT22;6795;51.232;3.764;2022-09-09T04:27:40;14.90;99.90
13446;DHT22;6795;51.232;3.764;2022-09-09T04:30:10;15.00;99.90
13446;DHT22;6795;51.232;3.764;2022-09-09T04:32:39;15.00;99.90
13446;DHT22;6795;51.232;3.764;2022-09-09T04:35:07;15.00;99.90
13446;DHT22;6795;51.232;3.764;2022-09-09T04:37:36;15.00;99.90
13446;DHT22;6795;51.232;3.764;2022-09-09T04:40:05;15.10;99.90
13446;DHT22;6795;51.232;3.764;2022-09-09T04:42:38;15.10;99.90
13446;DHT22;6795;51.232;3.764;2022-09-09T04:45:10;15.20;99.90
13446;DHT22;6795;51.232;3.764;2022-09-09T04:47:40;15.20;99.90
13446;DHT22;6795;51.232;3.764;2022-09-09T04:50:09;15.20;99.90
13446;DHT22;6795;51.232;3.764;2022-09-09T04:52:38;15.30;99.90
13446;DHT22;6795;51.232;3.764;2022-09-09T04:55:08;15.30;99.90
13446;DHT22;6795;51.232;3.764;2022-09-09T04:57:38;15.30;99.90
13446;DHT22;6795;51.232;3.764;2022-09-09T05:00:07;15.20;99.90
13446;DHT22;6795;51.232;3.764;2022-09-09T05:02:37;15.20;99.90
13446;DHT22;6795;51.232;3.764;2022-09-09T05:05:06;15.10;99.90
13446;DHT22;6795;51.232;3.764;2022-09-09T05:07:35;15.10;99.90
13446;DHT22;6795;51.232;3.764;2022-09-09T05:10:04;15.10;99.90
13446;DHT22;6795;51.232;3.764;2022-09-09T05:12:32;15.10;99.90
13446;DHT22;6795;51.232;3.764;2022-09-09T05:15:03;15.10;99.90
13446;DHT22;6795;51.232;3.764;2022-09-09T05:17:31;15.10;99.90
13446;DHT22;6795;51.232;3.764;2022-09-09T05:20:01;15.10;99.90
13446;DHT22;6795;51.232;3.764;2022-09-09T05:22:36;15.10;99.90
13446;DHT22;6795;51.232;3.764;2022-09-09T05:25:05;15.20;99.90
13446;DHT22;6795;51.232;3.764;2022-09-09T05:27:34;15.20;99.90
13446;DHT22;6795;51.232;3.764;2022-09-09T05:30:04;15.20;99.90
13446;DHT22;6795;51.232;3.764;2022-09-09T05:32:32;15.30;99.90
13446;DHT22;6795;51.232;3.764;2022-09-09T05:35:01;15.30;99.90
13446;DHT22;6795;51.232;3.764;2022-09-09T05:37:30;15.30;99.90
13446;DHT22;6795;51.232;3.764;2022-09-09T05:39:59;15.40;99.90
13446;DHT22;6795;51.232;3.764;2022-09-09T05:42:30;15.40;99.90
13446;DHT22;6795;51.232;3.764;2022-09-09T05:44:58;15.40;99.90
13446;DHT22;6795;51.232;3.764;2022-09-09T05:47:28;15.50;99.90
13446;DHT22;6795;51.232;3.764;2022-09-09T05:49:56;15.50;99.90
13446;DHT22;6795;51.232;3.764;2022-09-09T05:52:24;15.50;99.90
13446;DHT22;6795;51.232;3.764;2022-09-09T05:54:54;15.60;99.90
13446;DHT22;6795;51.232;3.764;2022-09-09T05:57:23;15.50;99.90
13446;DHT22;6795;51.232;3.764;2022-09-09T05:59:52;15.50;99.90
13446;DHT22;6795;51.232;3.764;2022-09-09T06:02:20;15.50;99.90
13446;DHT22;6795;51.232;3.764;2022-09-09T06:04:50;15.50;99.90
13446;DHT22;6795;51.232;3.764;2022-09-09T06:07:18;15.60;99.90
13446;DHT22;6795;51.232;3.764;2022-09-09T06:09:46;15.60;99.90
13446;DHT22;6795;51.232;3.764;2022-09-09T06:12:15;15.70;99.90
13446;DHT22;6795;51.232;3.764;2022-09-09T06:14:43;15.70;99.90
13446;DHT22;6795;51.232;3.764;2022-09-09T06:17:12;15.70;99.90
13446;DHT22;6795;51.232;3.764;2022-09-09T06:19:40;15.70;99.90
13446;DHT22;6795;51.232;3.764;2022-09-09T06:22:10;15.70;99.90
13446;DHT22;6795;51.232;3.764;2022-09-09T06:24:39;15.80;99.90
13446;DHT22;6795;51.232;3.764;2022-09-09T06:27:07;15.80;99.90
13446;DHT22;6795;51.232;3.764;2022-09-09T06:29:35;15.80;99.90
13446;DHT22;6795;51.232;3.764;2022-09-09T06:32:04;15.80;99.90
13446;DHT22;6795;51.232;3.764;2022-09-09T06:34:35;15.70;99.90
13446;DHT22;6795;51.232;3.764;2022-09-09T06:37:03;15.70;99.90
13446;DHT22;6795;51.232;3.764;2022-09-09T06:39:34;15.70;99.90
13446;DHT22;6795;51.232;3.764;2022-09-09T06:42:03;15.70;99.90
13446;DHT22;6795;51.232;3.764;2022-09-09T06:44:31;15.70;99.90
13446;DHT22;6795;51.232;3.764;2022-09-09T06:47:01;15.70;99.90
13446;DHT22;6795;51.232;3.764;2022-09-09T06:49:30;15.70;99.90
13446;DHT22;6795;51.232;3.764;2022-09-09T06:51:58;15.70;99.90
13446;DHT22;6795;51.232;3.764;2022-09-09T06:54:26;15.70;99.90
13446;DHT22;6795;51.232;3.764;2022-09-09T06:56:56;15.80;99.90
13446;DHT22;6795;51.232;3.764;2022-09-09T06:59:47;15.90;99.90
13446;DHT22;6795;51.232;3.764;2022-09-09T07:02:15;15.90;99.90
13446;DHT22;6795;51.232;3.764;2022-09-09T07:04:43;16.20;99.90
13446;DHT22;6795;51.232;3.764;2022-09-09T07:07:11;16.60;99.90
13446;DHT22;6795;51.232;3.764;2022-09-09T07:09:42;16.90;99.90
13446;DHT22;6795;51.232;3.764;2022-09-09T07:12:13;17.20;99.90
13446;DHT22;6795;51.232;3.764;2022-09-09T07:14:41;17.50;99.90
13446;DHT22;6795;51.232;3.764;2022-09-09T07:17:10;17.60;99.90
13446;DHT22;6795;51.232;3.764;2022-09-09T07:19:38;17.60;99.90
13446;DHT22;6795;51.232;3.764;2022-09-09T07:22:06;17.70;99.90
13446;DHT22;6795;51.232;3.764;2022-09-09T07:24:34;17.80;99.90
13446;DHT22;6795;51.232;3.764;2022-09-09T07:27:04;17.80;99.90
13446;DHT22;6795;51.232;3.764;2022-09-09T07:29:33;17.60;99.90
13446;DHT22;6795;51.232;3.764;2022-09-09T07:32:02;17.40;99.90
13446;DHT22;6795;51.232;3.764;2022-09-09T07:34:31;17.40;99.90
13446;DHT22;6795;51.232;3.764;2022-09-09T07:37:00;17.30;99.90
13446;DHT22;6795;51.232;3.764;2022-09-09T07:39:28;17.30;99.90
13446;DHT22;6795;51.232;3.764;2022-09-09T07:41:56;17.30;99.90
13446;DHT22;6795;51.232;3.764;2022-09-09T07:44:25;17.30;99.90
13446;DHT22;6795;51.232;3.764;2022-09-09T07:46:56;17.30;99.90
13446;DHT22;6795;51.232;3.764;2022-09-09T07:49:24;17.30;99.90
13446;DHT22;6795;51.232;3.764;2022-09-09T07:51:58;17.30;99.90
13446;DHT22;6795;51.232;3.764;2022-09-09T07:54:27;17.40;99.90
13446;DHT22;6795;51.232;3.764;2022-09-09T07:56:55;17.40;99.90
13446;DHT22;6795;51.232;3.764;2022-09-09T07:59:23;17.40;99.90
13446;DHT22;6795;51.232;3.764;2022-09-09T08:01:52;17.30;99.90
13446;DHT22;6795;51.232;3.764;2022-09-09T08:04:24;17.20;99.90
13446;DHT22;6795;51.232;3.764;2022-09-09T08:06:56;17.20;99.90
13446;DHT22;6795;51.232;3.764;2022-09-09T08:09:31;17.20;99.90
13446;DHT22;6795;51.232;3.764;2022-09-09T08:12:00;17.10;99.90
13446;DHT22;6795;51.232;3.764;2022-09-09T08:14:29;17.10;99.90
13446;DHT22;6795;51.232;3.764;2022-09-09T08:16:57;17.10;99.90
13446;DHT22;6795;51.232;3.764;2022-09-09T08:19:27;17.00;99.90
13446;DHT22;6795;51.232;3.764;2022-09-09T08:21:56;17.00;99.90
13446;DHT22;6795;51.232;3.764;2022-09-09T08:24:25;16.90;99.90
13446;DHT22;6795;51.232;3.764;2022-09-09T08:26:53;16.90;99.90
13446;DHT22;6795;51.232;3.764;2022-09-09T08:29:22;16.80;99.90
13446;DHT22;6795;51.232;3.764;2022-09-09T08:31:52;16.80;99.90
13446;DHT22;6795;51.232;3.764;2022-09-09T08:34:21;16.80;99.90
13446;DHT22;6795;51.232;3.764;2022-09-09T08:36:51;16.80;99.90
13446;DHT22;6795;51.232;3.764;2022-09-09T08:39:21;16.80;99.90
13446;DHT22;6795;51.232;3.764;2022-09-09T08:42:07;16.80;99.90
13446;DHT22;6795;51.232;3.764;2022-09-09T08:44:49;16.70;99.90
13446;DHT22;6795;51.232;3.764;2022-09-09T08:47:25;16.70;99.90
13446;DHT22;6795;51.232;3.764;2022-09-09T08:50:19;16.80;99.90
13446;DHT22;6795;51.232;3.764;2022-09-09T08:53:00;16.80;99.90
13446;DHT22;6795;51.232;3.764;2022-09-09T08:55:37;16.90;99.90
13446;DHT22;6795;51.232;3.764;2022-09-09T08:58:12;16.80;99.90
13446;DHT22;6795;51.232;3.764;2022-09-09T09:00:54;16.80;99.90
13446;DHT22;6795;51.232;3.764;2022-09-09T09:03:33;16.80;99.90
13446;DHT22;6795;51.232;3.764;2022-09-09T09:06:08;16.80;99.90
13446;DHT22;6795;51.232;3.764;2022-09-09T09:08:47;16.80;99.90
13446;DHT22;6795;51.232;3.764;2022-09-09T09:11:18;16.80;99.90
13446;DHT22;6795;51.232;3.764;2022-09-09T09:13:52;16.80;99.90
13446;DHT22;6795;51.232;3.764;2022-09-09T09:16:26;17.00;99.90
13446;DHT22;6795;51.232;3.764;2022-09-09T09:18:59;17.10;99.90
13446;DHT22;6795;51.232;3.764;2022-09-09T09:21:34;17.30;99.90
13446;DHT22;6795;51.232;3.764;2022-09-09T09:24:15;17.50;99.90
13446;DHT22;6795;51.232;3.764;2022-09-09T09:26:48;17.60;99.90
13446;DHT22;6795;51.232;3.764;2022-09-09T09:29:19;17.70;99.90
13446;DHT22;6795;51.232;3.764;2022-09-09T09:31:52;17.70;99.90
13446;DHT22;6795;51.232;3.764;2022-09-09T09:34:22;17.80;99.90
13446;DHT22;6795;51.232;3.764;2022-09-09T09:36:54;18.00;99.90
13446;DHT22;6795;51.232;3.764;2022-09-09T09:39:25;18.20;99.90
13446;DHT22;6795;51.232;3.764;2022-09-09T09:42:16;18.40;99.90
13446;DHT22;6795;51.232;3.764;2022-09-09T09:44:49;18.50;99.90
13446;DHT22;6795;51.232;3.764;2022-09-09T09:47:19;18.60;99.90
13446;DHT22;6795;51.232;3.764;2022-09-09T09:49:54;18.60;99.90
13446;DHT22;6795;51.232;3.764;2022-09-09T09:52:24;18.40;99.90
13446;DHT22;6795;51.232;3.764;2022-09-09T09:54:56;18.50;99.90
13446;DHT22;6795;51.232;3.764;2022-09-09T09:57:31;18.50;99.90
13446;DHT22;6795;51.232;3.764;2022-09-09T10:00:02;18.40;99.90
13446;DHT22;6795;51.232;3.764;2022-09-09T10:02:38;18.30;99.90
13446;DHT22;6795;51.232;3.764;2022-09-09T10:05:14;18.40;99.90
13446;DHT22;6795;51.232;3.764;2022-09-09T10:07:42;18.10;99.90
13446;DHT22;6795;51.232;3.764;2022-09-09T10:10:23;18.00;99.90
13446;DHT22;6795;51.232;3.764;2022-09-09T10:13:01;18.00;99.90
13446;DHT22;6795;51.232;3.764;2022-09-09T10:15:40;17.90;99.90
13446;DHT22;6795;51.232;3.764;2022-09-09T10:18:24;17.90;99.90
13446;DHT22;6795;51.232;3.764;2022-09-09T10:21:00;17.90;99.90
13446;DHT22;6795;51.232;3.764;2022-09-09T10:23:44;18.10;99.90
13446;DHT22;6795;51.232;3.764;2022-09-09T10:26:29;18.30;99.90
13446;DHT22;6795;51.232;3.764;2022-09-09T10:29:15;18.50;99.90
13446;DHT22;6795;51.232;3.764;2022-09-09T10:31:54;18.60;99.90
13446;DHT22;6795;51.232;3.764;2022-09-09T10:34:53;18.60;99.90
13446;DHT22;6795;51.232;3.764;2022-09-09T10:37:36;18.60;99.90
13446;DHT22;6795;51.232;3.764;2022-09-09T10:40:26;18.50;99.90
13446;DHT22;6795;51.232;3.764;2022-09-09T10:43:07;18.50;99.90
13446;DHT22;6795;51.232;3.764;2022-09-09T10:45:45;18.50;99.90
13446;DHT22;6795;51.232;3.764;2022-09-09T10:48:35;18.80;99.90
13446;DHT22;6795;51.232;3.764;2022-09-09T10:51:19;19.50;99.90
13446;DHT22;6795;51.232;3.764;2022-09-09T10:53:57;19.90;99.90
13446;DHT22;6795;51.232;3.764;2022-09-09T10:56:30;20.00;99.90
13446;DHT22;6795;51.232;3.764;2022-09-09T10:59:05;20.20;99.90
13446;DHT22;6795;51.232;3.764;2022-09-09T11:01:39;19.70;99.90
13446;DHT22;6795;51.232;3.764;2022-09-09T11:04:16;19.50;99.90
13446;DHT22;6795;51.232;3.764;2022-09-09T11:06:48;19.30;99.90
13446;DHT22;6795;51.232;3.764;2022-09-09T11:09:23;19.10;99.90
13446;DHT22;6795;51.232;3.764;2022-09-09T11:11:53;19.10;99.90
13446;DHT22;6795;51.232;3.764;2022-09-09T11:14:28;19.00;99.90
13446;DHT22;6795;51.232;3.764;2022-09-09T11:17:06;18.70;99.90
13446;DHT22;6795;51.232;3.764;2022-09-09T11:19:39;18.40;99.90
13446;DHT22;6795;51.232;3.764;2022-09-09T11:22:16;18.20;99.90
13446;DHT22;6795;51.232;3.764;2022-09-09T11:24:47;18.10;99.90
13446;DHT22;6795;51.232;3.764;2022-09-09T11:27:20;18.10;99.90
13446;DHT22;6795;51.232;3.764;2022-09-09T11:30:18;17.90;99.90
13446;DHT22;6795;51.232;3.764;2022-09-09T11:33:46;17.90;99.90
13446;DHT22;6795;51.232;3.764;2022-09-09T11:36:32;17.90;99.90
13446;DHT22;6795;51.232;3.764;2022-09-09T11:39:12;17.70;99.90
13446;DHT22;6795;51.232;3.764;2022-09-09T11:41:46;17.60;99.90
13446;DHT22;6795;51.232;3.764;2022-09-09T11:44:26;17.50;99.90
13446;DHT22;6795;51.232;3.764;2022-09-09T11:46:58;17.40;99.90
13446;DHT22;6795;51.232;3.764;2022-09-09T11:49:28;17.30;99.90
13446;DHT22;6795;51.232;3.764;2022-09-09T11:51:58;17.40;99.90
13446;DHT22;6795;51.232;3.764;2022-09-09T11:54:29;17.40;99.90
13446;DHT22;6795;51.232;3.764;2022-09-09T11:56:59;17.50;99.90
13446;DHT22;6795;51.232;3.764;2022-09-09T11:59:28;17.60;99.90
13446;DHT22;6795;51.232;3.764;2022-09-09T12:02:00;17.50;99.90
13446;DHT22;6795;51.232;3.764;2022-09-09T12:04:32;17.50;99.90
13446;DHT22;6795;51.232;3.764;2022-09-09T12:07:20;17.50;99.90
13446;DHT22;6795;51.232;3.764;2022-09-09T12:09:54;17.40;99.90
13446;DHT22;6795;51.232;3.764;2022-09-09T12:12:32;17.30;99.90
13446;DHT22;6795;51.232;3.764;2022-09-09T12:15:19;17.30;99.90
13446;DHT22;6795;51.232;3.764;2022-09-09T12:17:50;17.20;99.90
13446;DHT22;6795;51.232;3.764;2022-09-09T12:20:22;17.20;99.90
13446;DHT22;6795;51.232;3.764;2022-09-09T12:23:17;17.10;99.90
13446;DHT22;6795;51.232;3.764;2022-09-09T12:25:56;17.10;99.90
13446;DHT22;6795;51.232;3.764;2022-09-09T12:28:32;17.10;99.90
13446;DHT22;6795;51.232;3.764;2022-09-09T12:31:08;17.10;99.90
13446;DHT22;6795;51.232;3.764;2022-09-09T12:33:42;17.10;99.90
13446;DHT22;6795;51.232;3.764;2022-09-09T12:36:14;17.20;99.90
13446;DHT22;6795;51.232;3.764;2022-09-09T12:38:44;17.20;99.90
13446;DHT22;6795;51.232;3.764;2022-09-09T12:41:20;17.30;99.90
13446;DHT22;6795;51.232;3.764;2022-09-09T12:43:48;17.20;99.90
13446;DHT22;6795;51.232;3.764;2022-09-09T12:46:32;16.90;99.90
13446;DHT22;6795;51.232;3.764;2022-09-09T12:49:04;16.70;99.90
13446;DHT22;6795;51.232;3.764;2022-09-09T12:51:33;16.50;99.90
13446;DHT22;6795;51.232;3.764;2022-09-09T12:54:03;16.40;99.90
13446;DHT22;6795;51.232;3.764;2022-09-09T12:56:32;16.40;99.90
13446;DHT22;6795;51.232;3.764;2022-09-09T12:59:01;16.40;99.90
13446;DHT22;6795;51.232;3.764;2022-09-09T13:01:31;16.50;99.90
13446;DHT22;6795;51.232;3.764;2022-09-09T13:04:00;16.60;99.90
13446;DHT22;6795;51.232;3.764;2022-09-09T13:06:31;16.60;99.90
13446;DHT22;6795;51.232;3.764;2022-09-09T13:09:03;16.70;99.90
13446;DHT22;6795;51.232;3.764;2022-09-09T13:11:36;16.80;99.90
13446;DHT22;6795;51.232;3.764;2022-09-09T13:14:06;16.80;99.90
13446;DHT22;6795;51.232;3.764;2022-09-09T13:16:35;16.90;99.90
13446;DHT22;6795;51.232;3.764;2022-09-09T13:19:13;16.90;99.90
13446;DHT22;6795;51.232;3.764;2022-09-09T13:21:44;17.00;99.90
13446;DHT22;6795;51.232;3.764;2022-09-09T13:24:25;17.10;99.90
13446;DHT22;6795;51.232;3.764;2022-09-09T13:26:56;17.10;99.90
13446;DHT22;6795;51.232;3.764;2022-09-09T13:29:24;17.20;99.90
13446;DHT22;6795;51.232;3.764;2022-09-09T13:31:53;17.30;99.90
13446;DHT22;6795;51.232;3.764;2022-09-09T13:34:30;17.30;99.90
13446;DHT22;6795;51.232;3.764;2022-09-09T13:37:02;17.30;99.90
13446;DHT22;6795;51.232;3.764;2022-09-09T13:39:34;17.30;99.90
13446;DHT22;6795;51.232;3.764;2022-09-09T13:42:04;17.30;99.90
13446;DHT22;6795;51.232;3.764;2022-09-09T13:44:36;17.30;99.90
13446;DHT22;6795;51.232;3.764;2022-09-09T13:47:18;17.20;99.90
13446;DHT22;6795;51.232;3.764;2022-09-09T13:49:47;17.10;99.90
13446;DHT22;6795;51.232;3.764;2022-09-09T13:52:18;17.00;99.90
13446;DHT22;6795;51.232;3.764;2022-09-09T13:54:47;16.90;99.90
13446;DHT22;6795;51.232;3.764;2022-09-09T13:57:19;16.90;99.90
13446;DHT22;6795;51.232;3.764;2022-09-09T13:59:48;16.90;99.90
13446;DHT22;6795;51.232;3.764;2022-09-09T14:02:33;16.80;99.90
13446;DHT22;6795;51.232;3.764;2022-09-09T14:05:01;16.90;99.90
13446;DHT22;6795;51.232;3.764;2022-09-09T14:07:31;16.90;99.90
13446;DHT22;6795;51.232;3.764;2022-09-09T14:10:00;17.00;99.90
13446;DHT22;6795;51.232;3.764;2022-09-09T14:12:28;17.20;99.90
13446;DHT22;6795;51.232;3.764;2022-09-09T14:14:56;17.40;99.90
13446;DHT22;6795;51.232;3.764;2022-09-09T14:17:26;17.70;99.90
13446;DHT22;6795;51.232;3.764;2022-09-09T14:19:58;17.90;99.90
13446;DHT22;6795;51.232;3.764;2022-09-09T14:22:26;18.00;99.90
13446;DHT22;6795;51.232;3.764;2022-09-09T14:24:56;18.00;99.90
13446;DHT22;6795;51.232;3.764;2022-09-09T14:27:25;18.00;99.90
13446;DHT22;6795;51.232;3.764;2022-09-09T14:29:54;17.70;99.90
13446;DHT22;6795;51.232;3.764;2022-09-09T14:32:22;17.40;99.90
13446;DHT22;6795;51.232;3.764;2022-09-09T14:34:50;17.30;99.90
13446;DHT22;6795;51.232;3.764;2022-09-09T14:37:19;17.10;99.90
13446;DHT22;6795;51.232;3.764;2022-09-09T14:39:47;17.00;99.90
13446;DHT22;6795;51.232;3.764;2022-09-09T14:42:18;16.90;99.90
13446;DHT22;6795;51.232;3.764;2022-09-09T14:44:47;16.90;99.90
13446;DHT22;6795;51.232;3.764;2022-09-09T14:47:15;16.90;99.90
13446;DHT22;6795;51.232;3.764;2022-09-09T14:49:44;17.00;99.90
13446;DHT22;6795;51.232;3.764;2022-09-09T14:52:13;17.10;99.90
13446;DHT22;6795;51.232;3.764;2022-09-09T14:54:41;17.20;99.90
13446;DHT22;6795;51.232;3.764;2022-09-09T14:57:09;17.50;99.90
13446;DHT22;6795;51.232;3.764;2022-09-09T14:59:39;17.80;99.90
13446;DHT22;6795;51.232;3.764;2022-09-09T15:02:08;18.50;99.90
13446;DHT22;6795;51.232;3.764;2022-09-09T15:04:37;19.40;99.90
13446;DHT22;6795;51.232;3.764;2022-09-09T15:07:05;20.50;99.90
13446;DHT22;6795;51.232;3.764;2022-09-09T15:09:33;21.20;99.90
13446;DHT22;6795;51.232;3.764;2022-09-09T15:12:04;21.40;99.90
13446;DHT22;6795;51.232;3.764;2022-09-09T15:14:32;21.60;99.90
13446;DHT22;6795;51.232;3.764;2022-09-09T15:17:03;22.00;99.90
13446;DHT22;6795;51.232;3.764;2022-09-09T15:19:32;22.30;99.90
13446;DHT22;6795;51.232;3.764;2022-09-09T15:22:01;21.80;99.90
13446;DHT22;6795;51.232;3.764;2022-09-09T15:24:29;21.50;99.90
13446;DHT22;6795;51.232;3.764;2022-09-09T15:26:57;20.70;99.90
13446;DHT22;6795;51.232;3.764;2022-09-09T15:29:27;20.40;99.90
13446;DHT22;6795;51.232;3.764;2022-09-09T15:31:55;19.90;99.90
13446;DHT22;6795;51.232;3.764;2022-09-09T15:34:25;19.50;99.90
13446;DHT22;6795;51.232;3.764;2022-09-09T15:36:53;19.10;99.90
13446;DHT22;6795;51.232;3.764;2022-09-09T15:39:22;18.70;99.90
13446;DHT22;6795;51.232;3.764;2022-09-09T15:41:50;18.40;99.90
13446;DHT22;6795;51.232;3.764;2022-09-09T15:44:19;18.20;99.90
13446;DHT22;6795;51.232;3.764;2022-09-09T15:46:49;18.10;99.90
13446;DHT22;6795;51.232;3.764;2022-09-09T15:49:20;18.00;99.90
13446;DHT22;6795;51.232;3.764;2022-09-09T15:51:54;17.90;99.90
13446;DHT22;6795;51.232;3.764;2022-09-09T15:54:25;17.80;99.90
13446;DHT22;6795;51.232;3.764;2022-09-09T15:56:55;17.80;99.90
13446;DHT22;6795;51.232;3.764;2022-09-09T15:59:25;17.80;99.90
13446;DHT22;6795;51.232;3.764;2022-09-09T16:01:55;17.80;99.90
13446;DHT22;6795;51.232;3.764;2022-09-09T16:04:24;17.70;99.90
13446;DHT22;6795;51.232;3.764;2022-09-09T16:06:56;17.70;99.90
13446;DHT22;6795;51.232;3.764;2022-09-09T16:09:26;17.70;99.90
13446;DHT22;6795;51.232;3.764;2022-09-09T16:11:56;17.70;99.90
13446;DHT22;6795;51.232;3.764;2022-09-09T16:14:25;17.60;99.90
13446;DHT22;6795;51.232;3.764;2022-09-09T16:16:54;17.50;99.90